createdAt,value
2022-12-22T00:05:04.636Z,12.90
2022-12-22T00:10:26.160Z,12.90
2022-12-22T00:15:50.177Z,12.90
2022-12-22T00:21:10.979Z,12.90
2022-12-22T00:26:31.937Z,12.90
2022-12-22T00:31:53.371Z,12.80
2022-12-22T00:37:14.341Z,12.90
2022-12-22T00:42:35.082Z,12.80
2022-12-22T00:47:56.040Z,12.80
2022-12-22T00:53:18.812Z,12.80
2022-12-22T00:58:39.708Z,12.80
2022-12-22T01:04:00.554Z,12.80
2022-12-22T01:09:22.836Z,12.80
2022-12-22T01:14:44.069Z,12.80
2022-12-22T01:20:05.926Z,12.80
2022-12-22T01:25:34.838Z,12.80
2022-12-22T01:30:55.756Z,12.70
2022-12-22T01:41:39.643Z,12.70
2022-12-22T01:47:05.265Z,12.70
2022-12-22T01:52:28.034Z,12.70
2022-12-22T01:57:50.345Z,12.70
2022-12-22T02:03:11.284Z,12.70
2022-12-22T02:08:42.639Z,12.70
2022-12-22T02:14:29.507Z,12.70
2022-12-22T02:20:16.417Z,12.70
2022-12-22T02:25:46.684Z,12.60
2022-12-22T02:31:09.105Z,12.60
2022-12-22T02:36:33.795Z,12.60
2022-12-22T02:42:19.699Z,12.70
2022-12-22T02:48:09.069Z,12.70
2022-12-22T02:53:30.898Z,12.70
2022-12-22T02:58:53.039Z,12.60
2022-12-22T03:04:13.840Z,12.70
2022-12-22T03:09:34.847Z,12.70
2022-12-22T03:20:16.998Z,12.70
2022-12-22T03:25:37.777Z,12.70
2022-12-22T03:30:40.033Z,12.70
2022-12-22T03:35:44.454Z,12.80
2022-12-22T03:40:46.954Z,12.80
2022-12-22T03:46:13.441Z,12.90
2022-12-22T03:51:15.636Z,12.90
2022-12-22T03:56:17.799Z,13.00
2022-12-22T04:01:20.000Z,13.10
2022-12-22T04:06:22.210Z,13.10
2022-12-22T04:11:42.705Z,13.10
2022-12-22T04:16:44.942Z,13.00
2022-12-22T04:21:47.117Z,13.10
2022-12-22T04:26:50.302Z,13.10
2022-12-22T04:31:52.490Z,13.10
2022-12-22T04:36:54.989Z,13.10
2022-12-22T04:41:57.687Z,13.10
2022-12-22T04:46:59.798Z,13.10
2022-12-22T04:52:01.997Z,13.10
2022-12-22T04:57:04.304Z,13.10
2022-12-22T05:07:09.342Z,13.00
2022-12-22T05:17:32.679Z,13.10
2022-12-22T05:22:34.776Z,13.10
2022-12-22T05:27:37.009Z,13.10
2022-12-22T05:32:39.919Z,13.10
2022-12-22T05:37:42.091Z,13.10
2022-12-22T05:42:44.215Z,13.20
2022-12-22T05:47:52.261Z,13.20
2022-12-22T05:52:54.830Z,13.20
2022-12-22T06:02:59.537Z,13.30
2022-12-22T06:08:01.805Z,13.30
2022-12-22T06:13:03.981Z,13.30
2022-12-22T06:18:06.223Z,13.30
2022-12-22T06:23:08.546Z,13.30
2022-12-22T06:28:10.736Z,13.40
2022-12-22T06:33:12.901Z,13.30
2022-12-22T06:38:15.050Z,13.40
2022-12-22T06:48:20.658Z,13.40
2022-12-22T06:58:25.577Z,13.50
2022-12-22T07:08:30.557Z,13.50
2022-12-22T07:13:34.963Z,13.60
2022-12-22T07:18:39.999Z,13.70
2022-12-22T07:23:42.201Z,13.70
2022-12-22T07:28:44.571Z,13.80
2022-12-22T07:38:53.566Z,13.90
2022-12-22T07:43:58.227Z,13.90
2022-12-22T07:49:18.742Z,14.00
2022-12-22T07:54:20.809Z,14.00
2022-12-22T07:59:23.021Z,14.00
2022-12-22T08:09:28.026Z,14.00
2022-12-22T08:14:30.187Z,14.10
2022-12-22T08:19:34.087Z,14.10
2022-12-22T08:39:52.220Z,14.40
2022-12-22T08:49:56.907Z,14.50
2022-12-22T08:54:59.065Z,14.60
2022-12-22T09:05:04.786Z,14.60
2022-12-22T09:10:08.653Z,14.60
2022-12-22T09:15:11.085Z,14.60
2022-12-22T09:20:14.147Z,14.60
2022-12-22T09:25:18.330Z,14.70
2022-12-22T09:30:20.674Z,14.70
2022-12-22T09:35:22.827Z,14.70
2022-12-22T09:40:26.901Z,14.70
2022-12-22T09:45:30.325Z,14.70
2022-12-22T09:50:33.698Z,14.70
2022-12-22T09:55:42.553Z,14.70
2022-12-22T10:00:51.124Z,14.60
2022-12-22T10:06:15.765Z,14.70
2022-12-22T10:11:19.313Z,14.50
2022-12-22T10:16:28.717Z,14.50
2022-12-22T10:31:54.727Z,14.40
2022-12-22T10:37:03.178Z,14.50
2022-12-22T10:42:13.272Z,14.50
2022-12-22T10:47:24.368Z,14.50
2022-12-22T10:52:32.743Z,14.50
2022-12-22T11:07:44.568Z,14.50
2022-12-22T11:13:17.453Z,14.60
2022-12-22T11:18:33.643Z,14.50
2022-12-22T11:24:07.047Z,14.60
2022-12-22T11:29:15.352Z,14.60
2022-12-22T11:34:39.074Z,14.50
2022-12-22T11:39:59.331Z,14.60
2022-12-22T11:45:34.241Z,14.60
2022-12-22T11:51:01.919Z,14.60
2022-12-22T11:56:26.714Z,14.60
2022-12-22T12:01:47.463Z,14.60
2022-12-22T12:12:13.467Z,14.80
2022-12-22T12:17:28.753Z,14.70
2022-12-22T12:23:01.583Z,14.80
2022-12-22T12:28:03.621Z,14.80
2022-12-22T12:33:21.011Z,14.90
2022-12-22T12:44:06.232Z,14.90
2022-12-22T12:49:50.353Z,15.00
2022-12-22T12:55:17.131Z,15.20
2022-12-22T13:00:32.267Z,15.40
2022-12-22T13:05:51.818Z,15.70
2022-12-22T13:10:53.914Z,16.00
2022-12-22T13:16:02.495Z,16.20
2022-12-22T13:32:01.685Z,16.70
2022-12-22T13:37:17.637Z,17.00
2022-12-22T13:42:19.834Z,17.50
2022-12-22T13:47:21.956Z,17.90
2022-12-22T13:52:24.473Z,18.10
2022-12-22T13:57:26.667Z,17.90
2022-12-22T14:02:32.692Z,17.70
2022-12-22T14:12:44.640Z,17.10
2022-12-22T14:17:52.653Z,17.00
2022-12-22T14:23:04.339Z,16.70
2022-12-22T14:28:15.491Z,16.60
2022-12-22T14:33:30.859Z,16.50
2022-12-22T14:38:41.019Z,16.40
2022-12-22T14:43:43.158Z,16.30
2022-12-22T14:48:47.414Z,16.20
2022-12-22T14:53:49.611Z,16.20
2022-12-22T14:58:51.855Z,16.10
2022-12-22T15:04:04.659Z,16.00
2022-12-22T15:09:08.688Z,15.90
2022-12-22T15:19:17.660Z,15.70
2022-12-22T15:24:19.849Z,15.70
2022-12-22T15:29:22.115Z,15.50
2022-12-22T15:34:30.827Z,15.30
2022-12-22T15:39:33.367Z,15.20
2022-12-22T15:44:38.991Z,15.10
2022-12-22T15:49:41.648Z,15.00
2022-12-22T15:54:44.624Z,14.90
2022-12-22T15:59:46.816Z,14.90
2022-12-22T16:09:51.566Z,14.80
2022-12-22T16:14:56.904Z,14.70
2022-12-22T16:20:00.319Z,14.70
2022-12-22T16:25:04.669Z,14.60
2022-12-22T16:30:12.023Z,14.50
2022-12-22T16:35:20.382Z,14.40
2022-12-22T16:40:22.674Z,14.40
2022-12-22T16:45:28.710Z,14.30
2022-12-22T16:50:33.913Z,14.20
2022-12-22T16:55:36.224Z,14.20
2022-12-22T17:00:40.770Z,14.20
2022-12-22T17:05:48.465Z,14.10
2022-12-22T17:10:53.009Z,14.10
2022-12-22T17:21:00.317Z,14.10
2022-12-22T17:26:06.312Z,14.10
2022-12-22T17:31:13.811Z,14.10
2022-12-22T17:36:35.665Z,14.20
2022-12-22T17:41:37.843Z,14.20
2022-12-22T17:46:40.123Z,14.30
2022-12-22T17:51:42.816Z,14.20
2022-12-22T18:01:48.107Z,14.40
2022-12-22T18:06:50.398Z,14.30
2022-12-22T18:11:54.324Z,14.40
2022-12-22T18:16:56.565Z,14.20
2022-12-22T18:27:01.435Z,14.20
2022-12-22T18:32:03.938Z,14.20
2022-12-22T18:37:26.604Z,14.30
2022-12-22T18:47:31.228Z,14.10
2022-12-22T18:52:33.483Z,14.10
2022-12-22T18:57:35.585Z,14.00
2022-12-22T19:02:37.816Z,14.10
2022-12-22T19:12:43.202Z,14.00
2022-12-22T19:17:45.419Z,14.00
2022-12-22T19:22:48.315Z,14.00
2022-12-22T19:27:54.044Z,13.90
2022-12-22T19:33:02.668Z,13.90
2022-12-22T19:38:17.916Z,13.80
2022-12-22T19:43:20.323Z,13.80
2022-12-22T19:53:28.415Z,13.70
2022-12-22T19:58:37.858Z,13.60
2022-12-22T20:08:42.709Z,13.50
2022-12-22T20:13:46.588Z,13.50
2022-12-22T20:18:48.773Z,13.50
2022-12-22T20:23:51.584Z,13.50
2022-12-22T20:33:56.617Z,13.40
2022-12-22T20:39:00.354Z,13.40
2022-12-22T20:44:02.557Z,13.50
2022-12-22T20:49:10.725Z,13.50
2022-12-22T20:54:16.255Z,13.50
2022-12-22T20:59:21.369Z,13.50
2022-12-22T21:04:23.698Z,13.40
2022-12-22T21:09:26.899Z,13.50
2022-12-22T21:14:29.001Z,13.50
2022-12-22T21:19:31.064Z,13.40
2022-12-22T21:29:36.215Z,13.40
2022-12-22T21:34:38.500Z,13.40
2022-12-22T21:39:47.105Z,13.40
2022-12-22T21:44:50.547Z,13.40
2022-12-22T21:49:52.701Z,13.40
2022-12-22T21:54:54.921Z,13.50
2022-12-22T21:59:57.013Z,13.40
2022-12-22T22:05:01.282Z,13.40
2022-12-22T22:15:07.363Z,13.40
2022-12-22T22:20:18.510Z,13.40
2022-12-22T22:25:22.047Z,13.40
2022-12-22T22:30:25.861Z,13.40
2022-12-22T22:35:28.693Z,13.40
2022-12-22T22:40:30.825Z,13.40
2022-12-22T22:45:32.945Z,13.40
2022-12-22T22:55:37.603Z,13.40
2022-12-22T23:05:42.873Z,13.40
2022-12-22T23:10:49.576Z,13.40
2022-12-22T23:15:59.690Z,13.40
2022-12-22T23:21:04.083Z,13.40
2022-12-22T23:31:12.620Z,13.50
2022-12-22T23:36:15.115Z,13.50
2022-12-22T23:41:18.174Z,13.40
2022-12-22T23:51:24.321Z,13.30
2022-12-22T23:56:26.882Z,13.50
